sensor_id;sensor_type;location;lat;lon;timestamp;P1;durP1;ratioP1;P2;durP2;ratioP2
769;SDS011;368;48.698;9.116;2022-07-22T00:01:06;9.00;;;8.10;;
769;SDS011;368;48.698;9.116;2022-07-22T00:03:34;9.23;;;8.33;;
769;SDS011;368;48.698;9.116;2022-07-22T00:06:01;10.10;;;9.20;;
769;SDS011;368;48.698;9.116;2022-07-22T00:08:28;9.20;;;8.30;;
769;SDS011;368;48.698;9.116;2022-07-22T00:10:55;8.87;;;8.13;;
769;SDS011;368;48.698;9.116;2022-07-22T00:13:22;9.07;;;7.87;;
769;SDS011;368;48.698;9.116;2022-07-22T00:15:48;9.07;;;8.17;;
769;SDS011;368;48.698;9.116;2022-07-22T00:18:15;9.83;;;8.27;;
769;SDS011;368;48.698;9.116;2022-07-22T00:20:43;8.90;;;8.20;;
769;SDS011;368;48.698;9.116;2022-07-22T00:23:10;10.20;;;9.17;;
769;SDS011;368;48.698;9.116;2022-07-22T00:25:37;8.70;;;7.90;;
769;SDS011;368;48.698;9.116;2022-07-22T00:28:04;8.77;;;8.07;;
769;SDS011;368;48.698;9.116;2022-07-22T00:30:30;9.60;;;8.57;;
769;SDS011;368;48.698;9.116;2022-07-22T00:32:57;9.53;;;8.63;;
769;SDS011;368;48.698;9.116;2022-07-22T00:35:24;10.30;;;9.40;;
769;SDS011;368;48.698;9.116;2022-07-22T00:37:52;9.57;;;8.67;;
769;SDS011;368;48.698;9.116;2022-07-22T00:40:19;8.60;;;7.90;;
769;SDS011;368;48.698;9.116;2022-07-22T00:42:46;9.43;;;8.63;;
769;SDS011;368;48.698;9.116;2022-07-22T00:45:14;9.93;;;9.03;;
769;SDS011;368;48.698;9.116;2022-07-22T00:47:41;9.33;;;8.43;;
769;SDS011;368;48.698;9.116;2022-07-22T00:50:08;9.70;;;7.83;;
769;SDS011;368;48.698;9.116;2022-07-22T00:52:35;9.60;;;8.80;;
769;SDS011;368;48.698;9.116;2022-07-22T00:55:04;8.90;;;8.00;;
769;SDS011;368;48.698;9.116;2022-07-22T00:57:31;9.20;;;8.50;;
769;SDS011;368;48.698;9.116;2022-07-22T00:59:58;9.33;;;8.53;;
769;SDS011;368;48.698;9.116;2022-07-22T01:02:25;9.97;;;8.97;;
769;SDS011;368;48.698;9.116;2022-07-22T01:04:52;10.27;;;9.47;;
769;SDS011;368;48.698;9.116;2022-07-22T01:07:19;10.17;;;9.23;;
769;SDS011;368;48.698;9.116;2022-07-22T01:09:45;9.73;;;8.93;;
769;SDS011;368;48.698;9.116;2022-07-22T01:12:14;9.57;;;8.67;;
769;SDS011;368;48.698;9.116;2022-07-22T01:14:41;9.77;;;8.93;;
769;SDS011;368;48.698;9.116;2022-07-22T01:17:08;9.77;;;8.97;;
769;SDS011;368;48.698;9.116;2022-07-22T01:19:35;9.77;;;8.60;;
769;SDS011;368;48.698;9.116;2022-07-22T01:22:04;9.83;;;9.03;;
769;SDS011;368;48.698;9.116;2022-07-22T01:24:31;9.20;;;8.40;;
769;SDS011;368;48.698;9.116;2022-07-22T01:26:58;10.00;;;9.10;;
769;SDS011;368;48.698;9.116;2022-07-22T01:29:25;10.00;;;9.03;;
769;SDS011;368;48.698;9.116;2022-07-22T01:31:52;9.40;;;8.53;;
769;SDS011;368;48.698;9.116;2022-07-22T01:34:19;9.30;;;8.50;;
769;SDS011;368;48.698;9.116;2022-07-22T01:36:46;8.80;;;8.00;;
769;SDS011;368;48.698;9.116;2022-07-22T01:39:14;9.20;;;8.50;;
769;SDS011;368;48.698;9.116;2022-07-22T01:41:41;10.03;;;9.20;;
769;SDS011;368;48.698;9.116;2022-07-22T01:44:08;9.00;;;8.30;;
769;SDS011;368;48.698;9.116;2022-07-22T01:46:35;10.63;;;9.57;;
769;SDS011;368;48.698;9.116;2022-07-22T01:49:02;9.70;;;8.90;;
769;SDS011;368;48.698;9.116;2022-07-22T01:51:29;9.90;;;9.00;;
769;SDS011;368;48.698;9.116;2022-07-22T01:53:56;9.77;;;8.97;;
769;SDS011;368;48.698;9.116;2022-07-22T01:56:24;12.70;;;9.30;;
769;SDS011;368;48.698;9.116;2022-07-22T01:58:51;10.03;;;9.00;;
769;SDS011;368;48.698;9.116;2022-07-22T02:01:17;8.90;;;8.20;;
769;SDS011;368;48.698;9.116;2022-07-22T02:03:44;9.80;;;9.00;;
769;SDS011;368;48.698;9.116;2022-07-22T02:06:11;11.30;;;10.20;;
769;SDS011;368;48.698;9.116;2022-07-22T02:08:38;10.00;;;9.03;;
769;SDS011;368;48.698;9.116;2022-07-22T02:11:05;9.40;;;8.60;;
769;SDS011;368;48.698;9.116;2022-07-22T02:13:33;9.50;;;8.60;;
769;SDS011;368;48.698;9.116;2022-07-22T02:16:00;10.47;;;9.47;;
769;SDS011;368;48.698;9.116;2022-07-22T02:18:27;10.13;;;9.13;;
769;SDS011;368;48.698;9.116;2022-07-22T02:20:54;8.93;;;8.23;;
769;SDS011;368;48.698;9.116;2022-07-22T02:23:21;10.60;;;9.60;;
769;SDS011;368;48.698;9.116;2022-07-22T02:25:48;9.97;;;9.10;;
769;SDS011;368;48.698;9.116;2022-07-22T02:28:15;9.73;;;8.80;;
769;SDS011;368;48.698;9.116;2022-07-22T02:30:43;11.00;;;10.00;;
769;SDS011;368;48.698;9.116;2022-07-22T02:33:10;10.80;;;9.60;;
769;SDS011;368;48.698;9.116;2022-07-22T02:35:36;10.20;;;9.30;;
769;SDS011;368;48.698;9.116;2022-07-22T02:38:03;10.33;;;9.50;;
769;SDS011;368;48.698;9.116;2022-07-22T02:40:30;9.83;;;9.10;;
769;SDS011;368;48.698;9.116;2022-07-22T02:42:57;10.03;;;9.10;;
769;SDS011;368;48.698;9.116;2022-07-22T02:45:24;9.93;;;9.00;;
769;SDS011;368;48.698;9.116;2022-07-22T02:47:52;10.60;;;9.73;;
769;SDS011;368;48.698;9.116;2022-07-22T02:50:20;11.53;;;10.23;;
769;SDS011;368;48.698;9.116;2022-07-22T02:52:48;10.87;;;10.00;;
769;SDS011;368;48.698;9.116;2022-07-22T02:55:15;11.17;;;10.07;;
769;SDS011;368;48.698;9.116;2022-07-22T02:57:42;9.73;;;9.03;;
769;SDS011;368;48.698;9.116;2022-07-22T03:00:10;10.60;;;9.70;;
769;SDS011;368;48.698;9.116;2022-07-22T03:02:38;9.50;;;8.70;;
769;SDS011;368;48.698;9.116;2022-07-22T03:05:06;10.57;;;9.50;;
769;SDS011;368;48.698;9.116;2022-07-22T03:07:34;10.53;;;9.73;;
769;SDS011;368;48.698;9.116;2022-07-22T03:10:01;9.83;;;9.03;;
769;SDS011;368;48.698;9.116;2022-07-22T03:12:28;11.53;;;10.50;;
769;SDS011;368;48.698;9.116;2022-07-22T03:14:55;10.50;;;9.60;;
769;SDS011;368;48.698;9.116;2022-07-22T03:17:22;10.43;;;9.47;;
769;SDS011;368;48.698;9.116;2022-07-22T03:19:49;10.50;;;9.50;;
769;SDS011;368;48.698;9.116;2022-07-22T03:22:17;10.77;;;9.73;;
769;SDS011;368;48.698;9.116;2022-07-22T03:24:44;11.30;;;10.33;;
769;SDS011;368;48.698;9.116;2022-07-22T03:27:11;10.43;;;9.40;;
769;SDS011;368;48.698;9.116;2022-07-22T03:29:37;11.30;;;10.30;;
769;SDS011;368;48.698;9.116;2022-07-22T03:32:04;11.43;;;10.33;;
769;SDS011;368;48.698;9.116;2022-07-22T03:34:31;11.40;;;10.40;;
769;SDS011;368;48.698;9.116;2022-07-22T03:36:58;12.00;;;10.93;;
769;SDS011;368;48.698;9.116;2022-07-22T03:39:26;11.23;;;10.23;;
769;SDS011;368;48.698;9.116;2022-07-22T03:41:53;11.73;;;10.63;;
769;SDS011;368;48.698;9.116;2022-07-22T03:44:20;10.93;;;10.13;;
769;SDS011;368;48.698;9.116;2022-07-22T03:46:46;11.10;;;10.10;;
769;SDS011;368;48.698;9.116;2022-07-22T03:49:13;10.87;;;9.97;;
769;SDS011;368;48.698;9.116;2022-07-22T03:51:40;10.90;;;10.00;;
769;SDS011;368;48.698;9.116;2022-07-22T03:54:07;12.07;;;10.87;;
769;SDS011;368;48.698;9.116;2022-07-22T03:56:35;11.60;;;10.60;;
769;SDS011;368;48.698;9.116;2022-07-22T03:59:02;11.07;;;10.17;;
769;SDS011;368;48.698;9.116;2022-07-22T04:01:29;15.53;;;11.47;;
769;SDS011;368;48.698;9.116;2022-07-22T04:03:55;11.67;;;10.70;;
769;SDS011;368;48.698;9.116;2022-07-22T04:06:22;12.50;;;11.40;;
769;SDS011;368;48.698;9.116;2022-07-22T04:08:49;11.77;;;10.80;;
769;SDS011;368;48.698;9.116;2022-07-22T04:11:16;12.53;;;11.40;;
769;SDS011;368;48.698;9.116;2022-07-22T04:13:44;12.00;;;10.97;;
769;SDS011;368;48.698;9.116;2022-07-22T04:16:11;12.47;;;11.47;;
769;SDS011;368;48.698;9.116;2022-07-22T04:18:38;12.50;;;11.40;;
769;SDS011;368;48.698;9.116;2022-07-22T04:21:04;12.17;;;10.97;;
769;SDS011;368;48.698;9.116;2022-07-22T04:23:31;11.80;;;10.57;;
769;SDS011;368;48.698;9.116;2022-07-22T04:25:58;12.30;;;11.30;;
769;SDS011;368;48.698;9.116;2022-07-22T04:28:25;13.17;;;11.00;;
769;SDS011;368;48.698;9.116;2022-07-22T04:30:53;13.13;;;11.80;;
769;SDS011;368;48.698;9.116;2022-07-22T04:33:20;12.57;;;11.57;;
769;SDS011;368;48.698;9.116;2022-07-22T04:35:47;12.00;;;11.00;;
769;SDS011;368;48.698;9.116;2022-07-22T04:38:15;12.70;;;11.53;;
769;SDS011;368;48.698;9.116;2022-07-22T04:40:43;11.80;;;10.73;;
769;SDS011;368;48.698;9.116;2022-07-22T04:43:09;12.43;;;11.33;;
769;SDS011;368;48.698;9.116;2022-07-22T04:45:36;12.87;;;11.77;;
769;SDS011;368;48.698;9.116;2022-07-22T04:48:05;13.60;;;12.43;;
769;SDS011;368;48.698;9.116;2022-07-22T04:50:31;13.60;;;11.17;;
769;SDS011;368;48.698;9.116;2022-07-22T04:52:58;11.57;;;10.57;;
769;SDS011;368;48.698;9.116;2022-07-22T04:55:25;11.90;;;10.90;;
769;SDS011;368;48.698;9.116;2022-07-22T04:57:52;13.77;;;12.57;;
769;SDS011;368;48.698;9.116;2022-07-22T05:00:19;11.30;;;10.30;;
769;SDS011;368;48.698;9.116;2022-07-22T05:02:45;11.17;;;10.27;;
769;SDS011;368;48.698;9.116;2022-07-22T05:05:14;10.93;;;10.00;;
769;SDS011;368;48.698;9.116;2022-07-22T05:07:40;11.80;;;10.80;;
769;SDS011;368;48.698;9.116;2022-07-22T05:10:07;12.73;;;11.53;;
769;SDS011;368;48.698;9.116;2022-07-22T05:12:35;13.63;;;12.40;;
769;SDS011;368;48.698;9.116;2022-07-22T05:15:02;11.80;;;10.70;;
769;SDS011;368;48.698;9.116;2022-07-22T05:17:29;12.17;;;11.07;;
769;SDS011;368;48.698;9.116;2022-07-22T05:19:56;13.43;;;12.33;;
769;SDS011;368;48.698;9.116;2022-07-22T05:22:24;14.13;;;12.93;;
769;SDS011;368;48.698;9.116;2022-07-22T05:24:51;16.53;;;14.87;;
769;SDS011;368;48.698;9.116;2022-07-22T05:27:18;14.80;;;13.30;;
769;SDS011;368;48.698;9.116;2022-07-22T05:29:45;14.90;;;13.60;;
769;SDS011;368;48.698;9.116;2022-07-22T05:32:11;14.63;;;13.23;;
769;SDS011;368;48.698;9.116;2022-07-22T05:34:38;14.30;;;12.90;;
769;SDS011;368;48.698;9.116;2022-07-22T05:37:05;16.30;;;14.90;;
769;SDS011;368;48.698;9.116;2022-07-22T05:39:34;16.10;;;13.50;;
769;SDS011;368;48.698;9.116;2022-07-22T05:42:01;13.70;;;12.37;;
769;SDS011;368;48.698;9.116;2022-07-22T05:44:28;13.70;;;12.50;;
769;SDS011;368;48.698;9.116;2022-07-22T05:46:55;13.90;;;12.60;;
769;SDS011;368;48.698;9.116;2022-07-22T05:49:22;14.83;;;13.53;;
769;SDS011;368;48.698;9.116;2022-07-22T05:51:51;12.70;;;11.63;;
769;SDS011;368;48.698;9.116;2022-07-22T05:54:18;13.77;;;12.50;;
769;SDS011;368;48.698;9.116;2022-07-22T05:56:46;13.23;;;12.03;;
769;SDS011;368;48.698;9.116;2022-07-22T05:59:13;12.63;;;11.63;;
769;SDS011;368;48.698;9.116;2022-07-22T06:01:41;13.80;;;12.50;;
769;SDS011;368;48.698;9.116;2022-07-22T06:04:08;12.23;;;11.13;;
769;SDS011;368;48.698;9.116;2022-07-22T06:06:34;12.07;;;10.90;;
769;SDS011;368;48.698;9.116;2022-07-22T06:09:01;13.27;;;11.87;;
769;SDS011;368;48.698;9.116;2022-07-22T06:11:28;11.70;;;10.70;;
769;SDS011;368;48.698;9.116;2022-07-22T06:13:56;13.00;;;11.80;;
769;SDS011;368;48.698;9.116;2022-07-22T06:16:23;12.43;;;11.40;;
769;SDS011;368;48.698;9.116;2022-07-22T06:18:50;13.93;;;12.67;;
769;SDS011;368;48.698;9.116;2022-07-22T06:21:17;13.00;;;11.80;;
769;SDS011;368;48.698;9.116;2022-07-22T06:23:44;13.30;;;12.03;;
769;SDS011;368;48.698;9.116;2022-07-22T06:26:10;13.50;;;12.30;;
769;SDS011;368;48.698;9.116;2022-07-22T06:28:37;12.47;;;11.37;;
769;SDS011;368;48.698;9.116;2022-07-22T06:31:05;14.13;;;11.03;;
769;SDS011;368;48.698;9.116;2022-07-22T06:33:33;12.80;;;11.73;;
769;SDS011;368;48.698;9.116;2022-07-22T06:35:59;13.63;;;12.30;;
769;SDS011;368;48.698;9.116;2022-07-22T06:38:26;13.37;;;12.17;;
769;SDS011;368;48.698;9.116;2022-07-22T06:40:53;13.10;;;11.80;;
769;SDS011;368;48.698;9.116;2022-07-22T06:43:20;13.00;;;11.90;;
769;SDS011;368;48.698;9.116;2022-07-22T06:45:47;12.90;;;11.73;;
769;SDS011;368;48.698;9.116;2022-07-22T06:48:15;12.77;;;11.33;;
769;SDS011;368;48.698;9.116;2022-07-22T06:50:42;11.67;;;10.70;;
769;SDS011;368;48.698;9.116;2022-07-22T06:53:09;13.63;;;12.50;;
769;SDS011;368;48.698;9.116;2022-07-22T06:55:35;12.87;;;11.83;;
769;SDS011;368;48.698;9.116;2022-07-22T06:58:02;13.50;;;12.30;;
769;SDS011;368;48.698;9.116;2022-07-22T07:00:29;12.23;;;11.23;;
769;SDS011;368;48.698;9.116;2022-07-22T07:02:57;14.00;;;12.90;;
769;SDS011;368;48.698;9.116;2022-07-22T07:05:26;13.80;;;12.60;;
769;SDS011;368;48.698;9.116;2022-07-22T07:07:53;12.37;;;11.37;;
769;SDS011;368;48.698;9.116;2022-07-22T07:10:20;12.00;;;11.00;;
769;SDS011;368;48.698;9.116;2022-07-22T07:12:47;12.30;;;11.27;;
769;SDS011;368;48.698;9.116;2022-07-22T07:15:14;11.53;;;10.47;;
769;SDS011;368;48.698;9.116;2022-07-22T07:17:41;11.17;;;9.97;;
769;SDS011;368;48.698;9.116;2022-07-22T07:20:08;11.07;;;10.17;;
769;SDS011;368;48.698;9.116;2022-07-22T07:22:37;11.93;;;10.93;;
769;SDS011;368;48.698;9.116;2022-07-22T07:25:04;12.70;;;11.60;;
769;SDS011;368;48.698;9.116;2022-07-22T07:27:31;10.20;;;9.30;;
769;SDS011;368;48.698;9.116;2022-07-22T07:29:58;12.00;;;10.97;;
769;SDS011;368;48.698;9.116;2022-07-22T07:32:25;12.97;;;11.77;;
769;SDS011;368;48.698;9.116;2022-07-22T07:34:52;12.50;;;11.30;;
769;SDS011;368;48.698;9.116;2022-07-22T07:37:19;12.07;;;11.07;;
769;SDS011;368;48.698;9.116;2022-07-22T07:39:47;12.47;;;9.57;;
769;SDS011;368;48.698;9.116;2022-07-22T07:42:14;12.50;;;11.40;;
769;SDS011;368;48.698;9.116;2022-07-22T07:44:41;12.57;;;11.60;;
769;SDS011;368;48.698;9.116;2022-07-22T07:47:07;12.10;;;11.10;;
769;SDS011;368;48.698;9.116;2022-07-22T07:49:34;12.83;;;11.60;;
769;SDS011;368;48.698;9.116;2022-07-22T07:52:01;11.77;;;10.33;;
769;SDS011;368;48.698;9.116;2022-07-22T07:54:28;12.07;;;11.00;;
769;SDS011;368;48.698;9.116;2022-07-22T07:56:56;13.03;;;11.87;;
769;SDS011;368;48.698;9.116;2022-07-22T07:59:23;13.00;;;11.90;;
769;SDS011;368;48.698;9.116;2022-07-22T08:01:50;11.53;;;10.47;;
769;SDS011;368;48.698;9.116;2022-07-22T08:04:17;12.70;;;11.73;;
769;SDS011;368;48.698;9.116;2022-07-22T08:06:43;12.77;;;11.00;;
769;SDS011;368;48.698;9.116;2022-07-22T08:09:10;11.67;;;10.57;;
769;SDS011;368;48.698;9.116;2022-07-22T08:11:37;13.20;;;12.10;;
769;SDS011;368;48.698;9.116;2022-07-22T08:14:05;13.23;;;11.67;;
769;SDS011;368;48.698;9.116;2022-07-22T08:16:32;13.63;;;12.47;;
769;SDS011;368;48.698;9.116;2022-07-22T08:18:59;14.00;;;12.00;;
769;SDS011;368;48.698;9.116;2022-07-22T08:21:26;10.97;;;10.07;;
769;SDS011;368;48.698;9.116;2022-07-22T08:23:53;13.03;;;11.40;;
769;SDS011;368;48.698;9.116;2022-07-22T08:26:19;10.87;;;9.77;;
769;SDS011;368;48.698;9.116;2022-07-22T08:28:46;13.30;;;12.03;;
769;SDS011;368;48.698;9.116;2022-07-22T08:31:15;11.17;;;10.27;;
769;SDS011;368;48.698;9.116;2022-07-22T08:33:41;11.03;;;9.93;;
769;SDS011;368;48.698;9.116;2022-07-22T08:36:09;13.43;;;12.03;;
769;SDS011;368;48.698;9.116;2022-07-22T08:38:36;13.40;;;12.30;;
769;SDS011;368;48.698;9.116;2022-07-22T08:41:03;11.60;;;10.60;;
769;SDS011;368;48.698;9.116;2022-07-22T08:43:30;11.90;;;10.73;;
769;SDS011;368;48.698;9.116;2022-07-22T08:46:00;11.50;;;10.53;;
769;SDS011;368;48.698;9.116;2022-07-22T08:48:29;11.27;;;10.40;;
769;SDS011;368;48.698;9.116;2022-07-22T08:50:56;10.97;;;10.07;;
769;SDS011;368;48.698;9.116;2022-07-22T08:53:23;9.20;;;8.43;;
769;SDS011;368;48.698;9.116;2022-07-22T08:55:49;8.77;;;7.97;;
769;SDS011;368;48.698;9.116;2022-07-22T08:58:16;8.93;;;8.27;;
769;SDS011;368;48.698;9.116;2022-07-22T09:00:43;8.77;;;8.03;;
769;SDS011;368;48.698;9.116;2022-07-22T09:03:17;9.10;;;8.30;;
769;SDS011;368;48.698;9.116;2022-07-22T09:05:48;10.17;;;9.17;;
769;SDS011;368;48.698;9.116;2022-07-22T09:08:16;9.70;;;9.00;;
769;SDS011;368;48.698;9.116;2022-07-22T09:10:43;10.60;;;9.80;;
769;SDS011;368;48.698;9.116;2022-07-22T09:13:10;10.57;;;9.80;;
769;SDS011;368;48.698;9.116;2022-07-22T09:15:38;9.93;;;9.13;;
769;SDS011;368;48.698;9.116;2022-07-22T09:18:11;9.47;;;8.50;;
769;SDS011;368;48.698;9.116;2022-07-22T09:20:38;9.70;;;8.80;;
769;SDS011;368;48.698;9.116;2022-07-22T09:23:10;9.80;;;8.13;;
769;SDS011;368;48.698;9.116;2022-07-22T09:25:39;9.57;;;8.87;;
769;SDS011;368;48.698;9.116;2022-07-22T09:28:11;8.43;;;7.60;;
769;SDS011;368;48.698;9.116;2022-07-22T09:30:40;9.60;;;8.80;;
769;SDS011;368;48.698;9.116;2022-07-22T09:33:11;8.40;;;7.67;;
769;SDS011;368;48.698;9.116;2022-07-22T09:35:38;7.77;;;6.90;;
769;SDS011;368;48.698;9.116;2022-07-22T09:38:06;8.10;;;7.47;;
769;SDS011;368;48.698;9.116;2022-07-22T09:40:36;8.70;;;8.00;;
769;SDS011;368;48.698;9.116;2022-07-22T09:43:04;9.53;;;8.53;;
769;SDS011;368;48.698;9.116;2022-07-22T09:45:36;8.70;;;8.00;;
769;SDS011;368;48.698;9.116;2022-07-22T09:48:11;8.77;;;8.07;;
769;SDS011;368;48.698;9.116;2022-07-22T09:50:38;8.03;;;7.43;;
769;SDS011;368;48.698;9.116;2022-07-22T09:53:05;8.67;;;7.97;;
769;SDS011;368;48.698;9.116;2022-07-22T09:55:32;7.13;;;6.63;;
769;SDS011;368;48.698;9.116;2022-07-22T09:58:04;8.50;;;7.70;;
769;SDS011;368;48.698;9.116;2022-07-22T10:00:33;8.07;;;7.37;;
769;SDS011;368;48.698;9.116;2022-07-22T10:03:01;8.10;;;7.50;;
769;SDS011;368;48.698;9.116;2022-07-22T10:05:31;7.73;;;7.23;;
769;SDS011;368;48.698;9.116;2022-07-22T10:07:59;8.30;;;7.50;;
769;SDS011;368;48.698;9.116;2022-07-22T10:10:28;7.37;;;6.87;;
769;SDS011;368;48.698;9.116;2022-07-22T10:12:57;8.07;;;7.37;;
769;SDS011;368;48.698;9.116;2022-07-22T10:15:25;7.40;;;6.90;;
769;SDS011;368;48.698;9.116;2022-07-22T10:17:53;7.80;;;7.13;;
769;SDS011;368;48.698;9.116;2022-07-22T10:20:22;8.97;;;8.33;;
769;SDS011;368;48.698;9.116;2022-07-22T10:22:51;7.70;;;7.00;;
769;SDS011;368;48.698;9.116;2022-07-22T10:25:21;8.57;;;7.93;;
769;SDS011;368;48.698;9.116;2022-07-22T10:27:50;7.53;;;6.93;;
769;SDS011;368;48.698;9.116;2022-07-22T10:30:21;7.80;;;7.20;;
769;SDS011;368;48.698;9.116;2022-07-22T10:33:02;7.67;;;7.03;;
769;SDS011;368;48.698;9.116;2022-07-22T10:35:31;7.27;;;6.77;;
769;SDS011;368;48.698;9.116;2022-07-22T10:38:00;7.63;;;7.03;;
769;SDS011;368;48.698;9.116;2022-07-22T10:40:29;8.00;;;7.23;;
769;SDS011;368;48.698;9.116;2022-07-22T10:43:10;7.10;;;6.43;;
769;SDS011;368;48.698;9.116;2022-07-22T10:45:40;7.43;;;6.93;;
769;SDS011;368;48.698;9.116;2022-07-22T10:48:10;7.83;;;7.13;;
769;SDS011;368;48.698;9.116;2022-07-22T10:53:38;7.17;;;6.47;;
769;SDS011;368;48.698;9.116;2022-07-22T10:56:17;7.50;;;7.00;;
769;SDS011;368;48.698;9.116;2022-07-22T10:58:49;7.70;;;7.10;;
769;SDS011;368;48.698;9.116;2022-07-22T11:01:26;7.97;;;7.40;;
769;SDS011;368;48.698;9.116;2022-07-22T11:03:55;8.00;;;7.30;;
769;SDS011;368;48.698;9.116;2022-07-22T11:06:32;8.33;;;7.57;;
769;SDS011;368;48.698;9.116;2022-07-22T11:09:00;8.20;;;7.50;;
769;SDS011;368;48.698;9.116;2022-07-22T11:11:32;8.73;;;8.03;;
769;SDS011;368;48.698;9.116;2022-07-22T11:14:03;7.33;;;6.83;;
769;SDS011;368;48.698;9.116;2022-07-22T11:16:37;7.37;;;6.87;;
769;SDS011;368;48.698;9.116;2022-07-22T11:19:05;7.43;;;6.73;;
769;SDS011;368;48.698;9.116;2022-07-22T11:21:33;6.73;;;6.30;;
769;SDS011;368;48.698;9.116;2022-07-22T11:24:00;7.00;;;6.50;;
769;SDS011;368;48.698;9.116;2022-07-22T11:26:31;7.00;;;6.40;;
769;SDS011;368;48.698;9.116;2022-07-22T11:29:00;6.73;;;6.23;;
769;SDS011;368;48.698;9.116;2022-07-22T11:31:27;6.37;;;5.97;;
769;SDS011;368;48.698;9.116;2022-07-22T11:34:05;6.77;;;6.23;;
769;SDS011;368;48.698;9.116;2022-07-22T11:36:33;6.30;;;5.80;;
769;SDS011;368;48.698;9.116;2022-07-22T11:39:01;6.60;;;6.07;;
769;SDS011;368;48.698;9.116;2022-07-22T11:41:29;7.40;;;6.80;;
769;SDS011;368;48.698;9.116;2022-07-22T11:43:56;6.90;;;6.40;;
769;SDS011;368;48.698;9.116;2022-07-22T11:46:24;7.40;;;6.80;;
769;SDS011;368;48.698;9.116;2022-07-22T11:48:51;7.57;;;6.97;;
769;SDS011;368;48.698;9.116;2022-07-22T11:51:20;6.83;;;6.33;;
769;SDS011;368;48.698;9.116;2022-07-22T11:53:47;7.00;;;6.53;;
769;SDS011;368;48.698;9.116;2022-07-22T11:56:14;6.30;;;5.90;;
769;SDS011;368;48.698;9.116;2022-07-22T11:58:41;6.40;;;5.93;;
769;SDS011;368;48.698;9.116;2022-07-22T12:01:10;6.33;;;5.83;;
769;SDS011;368;48.698;9.116;2022-07-22T12:03:39;6.53;;;6.13;;
769;SDS011;368;48.698;9.116;2022-07-22T12:06:07;6.67;;;6.17;;
769;SDS011;368;48.698;9.116;2022-07-22T12:08:39;6.67;;;6.17;;
769;SDS011;368;48.698;9.116;2022-07-22T12:11:07;6.00;;;5.50;;
769;SDS011;368;48.698;9.116;2022-07-22T12:13:35;6.80;;;6.40;;
769;SDS011;368;48.698;9.116;2022-07-22T12:16:15;6.27;;;5.83;;
769;SDS011;368;48.698;9.116;2022-07-22T12:18:51;7.10;;;6.50;;
769;SDS011;368;48.698;9.116;2022-07-22T12:21:20;7.20;;;6.60;;
769;SDS011;368;48.698;9.116;2022-07-22T12:23:55;6.60;;;6.10;;
769;SDS011;368;48.698;9.116;2022-07-22T12:29:12;7.83;;;7.07;;
769;SDS011;368;48.698;9.116;2022-07-22T12:31:43;6.80;;;6.20;;
769;SDS011;368;48.698;9.116;2022-07-22T12:34:10;7.20;;;6.50;;
769;SDS011;368;48.698;9.116;2022-07-22T12:36:37;6.50;;;6.00;;
769;SDS011;368;48.698;9.116;2022-07-22T12:39:16;6.53;;;6.13;;
769;SDS011;368;48.698;9.116;2022-07-22T12:41:45;6.90;;;6.50;;
769;SDS011;368;48.698;9.116;2022-07-22T12:44:17;6.97;;;6.47;;
769;SDS011;368;48.698;9.116;2022-07-22T12:46:45;6.90;;;6.50;;
769;SDS011;368;48.698;9.116;2022-07-22T12:49:12;7.50;;;7.00;;
769;SDS011;368;48.698;9.116;2022-07-22T12:51:41;6.57;;;6.17;;
769;SDS011;368;48.698;9.116;2022-07-22T12:54:08;7.27;;;6.77;;
769;SDS011;368;48.698;9.116;2022-07-22T12:56:36;7.80;;;7.23;;
769;SDS011;368;48.698;9.116;2022-07-22T12:59:04;7.00;;;6.50;;
769;SDS011;368;48.698;9.116;2022-07-22T13:01:31;6.83;;;6.30;;
769;SDS011;368;48.698;9.116;2022-07-22T13:03:57;6.90;;;6.30;;
769;SDS011;368;48.698;9.116;2022-07-22T13:06:24;6.60;;;6.17;;
769;SDS011;368;48.698;9.116;2022-07-22T13:08:51;7.80;;;7.10;;
769;SDS011;368;48.698;9.116;2022-07-22T13:11:18;6.77;;;6.27;;
769;SDS011;368;48.698;9.116;2022-07-22T13:13:46;7.00;;;6.60;;
769;SDS011;368;48.698;9.116;2022-07-22T13:16:13;6.60;;;6.10;;
769;SDS011;368;48.698;9.116;2022-07-22T13:18:40;6.77;;;6.27;;
769;SDS011;368;48.698;9.116;2022-07-22T13:21:07;6.40;;;5.90;;
769;SDS011;368;48.698;9.116;2022-07-22T13:23:34;7.20;;;6.70;;
769;SDS011;368;48.698;9.116;2022-07-22T13:26:00;6.97;;;6.10;;
769;SDS011;368;48.698;9.116;2022-07-22T13:28:27;7.17;;;6.50;;
769;SDS011;368;48.698;9.116;2022-07-22T13:30:55;6.20;;;5.70;;
769;SDS011;368;48.698;9.116;2022-07-22T13:33:22;6.23;;;5.83;;
769;SDS011;368;48.698;9.116;2022-07-22T13:35:49;6.80;;;6.30;;
769;SDS011;368;48.698;9.116;2022-07-22T13:38:16;6.93;;;6.43;;
769;SDS011;368;48.698;9.116;2022-07-22T13:40:43;6.20;;;5.77;;
769;SDS011;368;48.698;9.116;2022-07-22T13:43:16;6.50;;;6.00;;
769;SDS011;368;48.698;9.116;2022-07-22T13:45:43;6.60;;;6.00;;
769;SDS011;368;48.698;9.116;2022-07-22T13:48:11;7.00;;;6.40;;
769;SDS011;368;48.698;9.116;2022-07-22T13:50:38;7.00;;;6.50;;
769;SDS011;368;48.698;9.116;2022-07-22T13:53:05;7.27;;;6.77;;
769;SDS011;368;48.698;9.116;2022-07-22T13:55:31;7.40;;;6.70;;
769;SDS011;368;48.698;9.116;2022-07-22T13:57:58;6.43;;;6.00;;
769;SDS011;368;48.698;9.116;2022-07-22T14:00:25;6.37;;;5.97;;
769;SDS011;368;48.698;9.116;2022-07-22T14:02:52;6.50;;;6.00;;
769;SDS011;368;48.698;9.116;2022-07-22T14:05:20;7.50;;;6.80;;
769;SDS011;368;48.698;9.116;2022-07-22T14:07:47;6.20;;;5.70;;
769;SDS011;368;48.698;9.116;2022-07-22T14:10:14;6.77;;;6.27;;
769;SDS011;368;48.698;9.116;2022-07-22T14:12:41;6.80;;;6.20;;
769;SDS011;368;48.698;9.116;2022-07-22T14:15:08;6.73;;;6.33;;
769;SDS011;368;48.698;9.116;2022-07-22T14:17:36;7.83;;;6.47;;
769;SDS011;368;48.698;9.116;2022-07-22T14:20:03;7.40;;;6.90;;
769;SDS011;368;48.698;9.116;2022-07-22T14:22:34;7.10;;;6.40;;
769;SDS011;368;48.698;9.116;2022-07-22T14:25:01;6.43;;;5.93;;
769;SDS011;368;48.698;9.116;2022-07-22T14:27:27;7.30;;;6.70;;
769;SDS011;368;48.698;9.116;2022-07-22T14:29:54;7.60;;;7.07;;
769;SDS011;368;48.698;9.116;2022-07-22T14:32:21;8.03;;;7.33;;
769;SDS011;368;48.698;9.116;2022-07-22T14:34:48;7.37;;;6.87;;
769;SDS011;368;48.698;9.116;2022-07-22T14:37:15;7.50;;;7.00;;
769;SDS011;368;48.698;9.116;2022-07-22T14:39:43;8.00;;;7.40;;
769;SDS011;368;48.698;9.116;2022-07-22T14:42:10;7.47;;;6.90;;
769;SDS011;368;48.698;9.116;2022-07-22T14:44:36;7.30;;;6.80;;
769;SDS011;368;48.698;9.116;2022-07-22T14:47:03;6.97;;;6.40;;
769;SDS011;368;48.698;9.116;2022-07-22T14:49:30;8.00;;;7.40;;
769;SDS011;368;48.698;9.116;2022-07-22T14:51:57;7.63;;;6.93;;
769;SDS011;368;48.698;9.116;2022-07-22T14:54:24;8.00;;;7.20;;
769;SDS011;368;48.698;9.116;2022-07-22T14:56:52;7.23;;;6.70;;
769;SDS011;368;48.698;9.116;2022-07-22T14:59:18;7.17;;;6.53;;
769;SDS011;368;48.698;9.116;2022-07-22T15:01:46;7.87;;;7.13;;
769;SDS011;368;48.698;9.116;2022-07-22T15:04:13;8.10;;;7.47;;
769;SDS011;368;48.698;9.116;2022-07-22T15:06:40;7.30;;;6.60;;
769;SDS011;368;48.698;9.116;2022-07-22T15:09:07;7.77;;;7.07;;
769;SDS011;368;48.698;9.116;2022-07-22T15:11:34;6.97;;;6.40;;
769;SDS011;368;48.698;9.116;2022-07-22T15:14:02;8.13;;;7.60;;
769;SDS011;368;48.698;9.116;2022-07-22T15:16:28;10.10;;;7.43;;
769;SDS011;368;48.698;9.116;2022-07-22T15:18:55;8.80;;;7.53;;
769;SDS011;368;48.698;9.116;2022-07-22T15:21:22;7.23;;;6.53;;
769;SDS011;368;48.698;9.116;2022-07-22T15:23:49;8.03;;;7.43;;
769;SDS011;368;48.698;9.116;2022-07-22T15:26:16;8.27;;;7.77;;
769;SDS011;368;48.698;9.116;2022-07-22T15:28:43;7.33;;;6.83;;
769;SDS011;368;48.698;9.116;2022-07-22T15:31:13;7.53;;;6.97;;
769;SDS011;368;48.698;9.116;2022-07-22T15:33:40;8.80;;;8.10;;
769;SDS011;368;48.698;9.116;2022-07-22T15:36:08;7.20;;;6.60;;
769;SDS011;368;48.698;9.116;2022-07-22T15:38:35;8.17;;;7.20;;
769;SDS011;368;48.698;9.116;2022-07-22T15:41:03;7.70;;;7.00;;